Time;durP1;ratioP1;P1;durP2;ratioP2;P2;SDS_P1;SDS_P2;PMS_P1;PMS_P2;Temp;Humidity;BMP_temperature;BMP_pressure;BME280_temperature;BME280_humidity;BME280_pressure;Samples;Min_cycle;Max_cycle;Signal;HPM_P1;HPM_P2
2022/04/26 03:36:39;;;;;;;8.00;7.57;;;;;;;10.29;71.04;92487.66;5089708;28;20231;-82
2022/04/26 03:39:06;;;;;;;8.47;8.17;;;;;;;10.38;71.37;92495.66;5090318;28;20211;-83
2022/04/26 03:41:33;;;;;;;8.27;7.87;;;;;;;10.48;71.42;92511.94;5071106;28;20240;-81
2022/04/26 03:43:59;;;;;;;9.03;8.63;;;;;;;10.36;71.45;92490.72;5090344;28;20189;-83
2022/04/26 03:46:25;;;;;;;8.07;7.70;;;;;;;10.42;70.98;92501.84;5088150;28;20231;-83
2022/04/26 03:48:51;;;;;;;7.90;7.50;;;;;;;10.55;70.83;92511.63;5088653;28;20222;-83
2022/04/26 03:51:16;;;;;;;7.47;7.17;;;;;;;10.65;70.88;92521.91;5088865;28;20257;-82
2022/04/26 03:53:41;;;;;;;8.30;7.90;;;;;;;10.80;70.08;92521.72;5071408;28;20184;-83
2022/04/26 03:56:07;;;;;;;7.90;7.37;;;;;;;10.82;70.27;92520.38;5089190;28;20224;-83
2022/04/26 03:58:33;;;;;;;7.40;7.07;;;;;;;10.77;69.97;92498.81;5090703;28;20213;-87
2022/04/26 04:00:59;;;;;;;7.53;7.23;;;;;;;10.89;70.00;92512.22;5088089;28;20260;-90
2022/04/26 04:03:25;;;;;;;7.70;7.17;;;;;;;11.14;69.87;92540.59;5089423;28;20195;-81
2022/04/26 04:05:51;;;;;;;7.33;6.83;;;;;;;11.28;68.77;92538.81;5089285;28;20281;-83
2022/04/26 04:08:16;;;;;;;8.47;8.13;;;;;;;11.47;68.00;92541.41;5090175;28;20202;-88
2022/04/26 04:10:42;;;;;;;7.90;7.50;;;;;;;11.53;68.45;92542.88;5089719;28;20239;-83
2022/04/26 04:13:08;;;;;;;7.63;7.27;;;;;;;11.57;67.35;92533.41;5090172;28;20203;-85
2022/04/26 04:15:34;;;;;;;8.20;7.90;;;;;;;11.60;67.08;92532.81;5088396;28;20231;-78
2022/04/26 04:17:59;;;;;;;7.83;7.43;;;;;;;11.95;66.35;92553.22;5088054;28;20236;-82
2022/04/26 04:20:25;;;;;;;8.67;8.07;;;;;;;11.96;65.79;92552.91;5088647;28;20216;-82
2022/04/26 04:22:53;;;;;;;7.90;7.47;;;;;;;12.23;65.13;92552.19;5090120;28;20244;-77
2022/04/26 04:25:20;;;;;;;7.03;6.83;;;;;;;12.43;64.29;92559.66;5088818;28;20256;-78
2022/04/26 04:27:45;;;;;;;8.33;8.03;;;;;;;12.48;64.58;92565.56;5089221;28;20236;-83
2022/04/26 04:30:11;;;;;;;7.53;7.17;;;;;;;12.47;63.92;92558.00;5070505;28;20176;-81
2022/04/26 04:32:37;;;;;;;9.93;8.73;;;;;;;12.52;63.82;92565.78;5072100;28;20188;-79
2022/04/26 04:35:04;;;;;;;8.80;8.43;;;;;;;12.71;63.29;92577.72;5086542;28;20188;-88
2022/04/26 04:37:29;;;;;;;8.67;8.27;;;;;;;12.96;62.82;92573.81;5086437;28;20232;-88
2022/04/26 04:39:55;;;;;;;8.73;8.20;;;;;;;13.12;62.05;92556.72;5088764;28;20188;-80
2022/04/26 04:42:21;;;;;;;8.40;8.00;;;;;;;13.31;60.97;92578.34;5088461;28;20219;-84
2022/04/26 04:44:47;;;;;;;8.53;8.13;;;;;;;13.28;60.95;92557.94;5087637;28;20188;-80
2022/04/26 04:47:12;;;;;;;8.23;7.83;;;;;;;13.72;63.40;92579.00;5088153;28;20284;-83
2022/04/26 04:49:38;;;;;;;9.23;8.83;;;;;;;13.79;60.02;92584.59;5087362;28;20203;-78
2022/04/26 04:52:03;;;;;;;7.90;7.60;;;;;;;13.62;58.84;92573.97;5088776;28;20250;-81
2022/04/26 04:54:29;;;;;;;8.03;7.60;;;;;;;13.98;58.58;92585.19;5088174;28;20184;-79
2022/04/26 04:56:54;;;;;;;8.93;8.13;;;;;;;13.86;58.35;92590.19;5089946;28;20242;-89
2022/04/26 04:59:19;;;;;;;8.50;8.10;;;;;;;14.17;57.85;92587.63;5088486;28;20212;-89
2022/04/26 05:01:45;;;;;;;8.27;7.90;;;;;;;14.36;57.73;92583.75;5089142;28;20213;-81
2022/04/26 05:04:10;;;;;;;8.97;8.33;;;;;;;14.24;58.56;92580.88;5086476;28;20256;-82
2022/04/26 05:06:36;;;;;;;7.53;7.23;;;;;;;14.55;57.16;92572.22;5087324;28;20289;-79
2022/04/26 05:09:01;;;;;;;8.30;8.00;;;;;;;14.58;57.61;92595.28;5086458;28;20209;-79
2022/04/26 05:11:27;;;;;;;8.83;8.33;;;;;;;14.54;57.57;92586.47;5087425;28;20284;-77
2022/04/26 05:13:52;;;;;;;8.73;8.13;;;;;;;14.75;57.68;92584.81;5069464;28;20171;-84
2022/04/26 05:16:18;;;;;;;9.27;8.77;;;;;;;14.97;57.57;92592.63;5087233;28;20258;-84
2022/04/26 05:18:43;;;;;;;9.33;8.77;;;;;;;15.10;56.35;92608.28;5087532;28;20216;-86
2022/04/26 05:21:09;;;;;;;8.93;8.43;;;;;;;15.16;55.56;92606.31;5086562;28;20305;-86
2022/04/26 05:26:19;;;;;;;7.20;6.90;;;;;;;15.16;55.76;92585.28;5086646;28;20227;-84
2022/04/26 05:28:45;;;;;;;8.87;8.37;;;;;;;17.53;48.94;92608.84;5090498;28;20196;-84
2022/04/26 05:31:10;;;;;;;7.40;7.10;;;;;;;19.17;43.83;92607.81;5089268;28;20707;-83
2022/04/26 05:33:36;;;;;;;11.77;7.63;;;;;;;21.59;37.70;92619.00;5088939;28;20215;-78
2022/04/26 05:36:02;;;;;;;8.00;7.57;;;;;;;23.19;34.12;92596.03;5087946;28;20251;-84
2022/04/26 05:38:28;;;;;;;7.93;7.20;;;;;;;22.88;34.48;92589.00;5086080;28;20245;-82
2022/04/26 05:40:53;;;;;;;6.93;6.63;;;;;;;23.33;33.33;92621.00;5088465;28;20225;-83
2022/04/26 05:43:19;;;;;;;7.18;6.88;;;;;;;25.18;30.83;92626.50;5089275;28;20548;-89
2022/04/26 05:45:44;;;;;;;6.78;6.45;;;;;;;26.87;27.85;92632.97;5089804;28;21265;-76
2022/04/26 05:48:11;;;;;;;7.30;6.90;;;;;;;26.09;28.67;92616.56;5089838;28;20174;-82
2022/04/26 05:50:37;;;;;;;7.32;6.82;;;;;;;27.73;26.89;92636.22;5088674;28;20241;-82
2022/04/26 05:53:02;;;;;;;6.90;6.50;;;;;;;26.61;27.71;92634.81;5088782;28;20206;-82
2022/04/26 05:55:28;;;;;;;6.90;6.60;;;;;;;26.56;27.87;92640.50;5089025;28;20184;-84
2022/04/26 05:57:54;;;;;;;6.43;6.03;;;;;;;27.19;27.11;92631.16;5093074;28;20219;-82
2022/04/26 06:00:20;;;;;;;6.90;6.50;;;;;;;27.62;26.18;92619.34;5091694;28;20196;-83
2022/04/26 06:02:46;;;;;;;6.60;6.20;;;;;;;29.88;23.46;92641.56;5092858;28;20169;-83
2022/04/26 06:05:12;;;;;;;5.70;5.40;;;;;;;31.48;20.90;92651.78;5074706;28;20253;-81
2022/04/26 06:07:37;;;;;;;7.07;6.57;;;;;;;31.41;20.80;92643.75;5092479;28;20269;-83
2022/04/26 06:10:03;;;;;;;6.38;6.07;;;;;;;31.24;21.73;92633.94;5092618;28;20189;-83
2022/04/26 06:12:29;;;;;;;6.45;6.05;;;;;;;31.42;21.47;92631.81;5091804;28;20228;-82
2022/04/26 06:14:59;;;;;;;6.57;6.28;;;;;;;27.73;25.60;92625.47;5092455;28;20184;-83
2022/04/26 06:17:24;;;;;;;6.70;6.30;;;;;;;25.58;27.90;92617.69;5091731;28;21280;-82
2022/04/26 06:19:50;;;;;;;6.68;6.15;;;;;;;21.52;34.59;92605.59;5092194;28;20205;-82
2022/04/26 06:22:16;;;;;;;6.82;6.53;;;;;;;20.35;36.79;92615.16;5091977;28;20258;-82
2022/04/26 06:24:41;;;;;;;7.20;6.88;;;;;;;19.55;39.16;92608.25;5092224;28;20222;-82
2022/04/26 06:27:07;;;;;;;7.35;6.95;;;;;;;19.53;39.45;92610.47;5091967;28;20265;-82
2022/04/26 06:29:33;;;;;;;8.05;7.53;;;;;;;17.40;44.47;92602.69;5091911;28;20200;-80
2022/04/26 06:31:58;;;;;;;7.43;7.03;;;;;;;17.65;44.07;92589.69;5092177;28;20281;-80
2022/04/26 06:34:24;;;;;;;7.77;7.23;;;;;;;17.80;44.24;92608.38;5091227;28;20204;-82
2022/04/26 06:36:50;;;;;;;7.63;7.27;;;;;;;17.31;45.56;92606.47;5073368;28;20226;-81
2022/04/26 06:39:16;;;;;;;6.93;6.63;;;;;;;17.29;46.32;92588.31;5073519;28;20205;-81
2022/04/26 06:41:41;;;;;;;7.83;7.43;;;;;;;17.31;45.76;92607.25;5091033;28;20225;-81
2022/04/26 06:44:07;;;;;;;7.87;7.23;;;;;;;17.26;46.68;92594.25;5092013;28;20178;-79
2022/04/26 06:46:35;;;;;;;9.10;8.67;;;;;;;17.34;45.85;92584.72;5072869;28;20229;-81
2022/04/26 06:49:05;;;;;;;7.70;7.40;;;;;;;17.17;46.52;92601.44;5089937;28;20192;-81
2022/04/26 06:51:33;;;;;;;8.20;7.60;;;;;;;17.21;46.04;92573.31;5090563;28;20229;-82
2022/04/26 06:53:58;;;;;;;8.00;7.40;;;;;;;17.81;46.01;92595.91;5091641;28;20200;-81
2022/04/26 06:56:24;;;;;;;7.90;7.60;;;;;;;18.01;44.74;92582.72;5091533;28;20220;-81
2022/04/26 06:58:50;;;;;;;8.17;7.77;;;;;;;18.02;43.70;92594.84;5091836;28;20638;-81
2022/04/26 07:01:15;;;;;;;8.13;7.30;;;;;;;17.89;44.73;92590.59;5091300;28;20233;-83
2022/04/26 07:03:41;;;;;;;7.70;7.20;;;;;;;17.48;46.21;92586.06;5090869;28;20192;-81
2022/04/26 07:06:06;;;;;;;7.63;7.33;;;;;;;18.08;43.74;92590.13;5090366;28;20224;-82
2022/04/26 07:08:31;;;;;;;7.57;7.07;;;;;;;17.32;44.82;92553.38;5091140;28;20189;-80
2022/04/26 07:10:57;;;;;;;8.10;7.60;;;;;;;17.85;45.76;92589.69;5091298;28;20239;-81
2022/04/26 07:13:22;;;;;;;8.00;7.60;;;;;;;17.90;45.63;92572.88;5072635;28;20259;-81
2022/04/26 07:15:48;;;;;;;7.60;7.30;;;;;;;18.60;43.57;92591.19;5090435;28;20236;-82
2022/04/26 07:18:14;;;;;;;8.50;8.00;;;;;;;18.60;42.03;92596.50;5091220;28;20220;-81
2022/04/26 07:20:40;;;;;;;7.27;6.97;;;;;;;17.95;43.76;92593.78;5090663;28;20240;-81
2022/04/26 07:23:07;;;;;;;8.03;7.60;;;;;;;18.19;42.35;92584.13;5090853;28;20170;-80
2022/04/26 07:25:33;;;;;;;8.07;7.77;;;;;;;18.23;44.38;92594.78;5091157;28;20228;-81
2022/04/26 07:27:58;;;;;;;7.40;7.10;;;;;;;18.17;43.37;92590.81;5091065;28;20181;-81
2022/04/26 07:30:32;;;;;;;7.77;7.43;;;;;;;18.54;42.97;92593.28;5091179;28;20193;-81
2022/04/26 07:35:41;;;;;;;8.40;7.70;;;;;;;18.73;41.95;92593.53;5087726;28;20229;-80
2022/04/26 07:38:07;;;;;;;8.40;8.00;;;;;;;18.72;42.19;92602.56;5090359;28;20224;-81
2022/04/26 07:40:33;;;;;;;7.53;7.00;;;;;;;18.82;43.01;92599.50;5090616;28;20233;-81
2022/04/26 07:42:59;;;;;;;7.80;7.47;;;;;;;18.93;42.60;92605.13;5088430;28;20181;-80
2022/04/26 07:45:25;;;;;;;9.00;8.13;;;;;;;19.21;41.99;92598.09;5089341;28;20940;-81
2022/04/26 07:47:51;;;;;;;7.70;7.30;;;;;;;19.09;41.75;92600.75;5090901;28;20274;-82
2022/04/26 07:50:17;;;;;;;7.87;7.47;;;;;;;18.71;42.13;92581.72;5089841;28;20187;-81
2022/04/26 07:52:42;;;;;;;7.20;6.80;;;;;;;18.76;43.29;92602.69;5090204;28;20192;-82
2022/04/26 07:55:08;;;;;;;6.87;6.67;;;;;;;18.61;44.08;92590.09;5089971;28;20207;-82
2022/04/26 07:57:34;;;;;;;7.43;7.13;;;;;;;19.01;43.71;92583.88;5089739;28;20254;-82
2022/04/26 08:00:00;;;;;;;8.20;7.70;;;;;;;19.08;42.00;92570.09;5089432;28;20198;-82
2022/04/26 08:02:26;;;;;;;7.73;7.30;;;;;;;19.33;42.16;92595.47;5090570;28;20218;-81
2022/04/26 08:04:53;;;;;;;8.17;7.63;;;;;;;19.34;41.75;92602.31;5090430;28;20196;-81
2022/04/26 08:07:18;;;;;;;8.67;8.10;;;;;;;19.25;42.21;92598.19;5089267;28;20222;-81
2022/04/26 08:09:44;;;;;;;7.57;7.17;;;;;;;19.03;44.44;92565.00;5089385;28;20187;-82
2022/04/26 08:12:09;;;;;;;8.10;7.47;;;;;;;19.32;43.04;92596.56;5072458;28;20228;-81
2022/04/26 08:14:35;;;;;;;7.63;7.17;;;;;;;19.50;43.14;92575.94;5091037;28;20200;-82
2022/04/26 08:17:00;;;;;;;8.17;7.57;;;;;;;19.58;42.61;92580.34;5088892;28;20217;-82
2022/04/26 08:19:26;;;;;;;8.13;7.47;;;;;;;19.53;42.17;92578.69;5090175;28;20205;-82
2022/04/26 08:21:51;;;;;;;7.53;7.20;;;;;;;19.38;41.86;92583.91;5089627;28;20226;-81
2022/04/26 08:29:46;;;;;;;7.83;7.43;;;;;;;19.49;43.72;92564.56;5089516;28;20192;-81
2022/04/26 08:32:13;;;;;;;7.87;7.27;;;;;;;19.55;43.83;92573.81;5090034;28;20247;-81
2022/04/26 08:34:39;;;;;;;7.93;7.37;;;;;;;19.72;42.26;92586.06;5089204;28;20185;-81
2022/04/26 08:37:05;;;;;;;8.63;8.00;;;;;;;19.74;44.25;92592.53;5088235;28;20237;-81
2022/04/26 08:39:31;;;;;;;9.07;8.27;;;;;;;19.60;43.60;92589.47;5088872;28;20201;-81
2022/04/26 08:41:57;;;;;;;8.43;7.63;;;;;;;19.53;43.37;92602.53;5071621;28;20226;-81
2022/04/26 08:44:27;;;;;;;9.27;8.53;;;;;;;19.47;43.76;92593.25;5070841;28;20182;-81
2022/04/26 08:52:49;;;;;;;8.80;7.87;;;;;;;19.07;45.16;92595.00;5084180;28;20245;-81
2022/04/26 08:55:15;;;;;;;7.50;6.90;;;;;;;19.34;44.57;92596.25;5088226;28;20185;-80
2022/04/26 08:57:41;;;;;;;8.17;7.77;;;;;;;19.06;43.94;92559.84;5079907;28;20621;-80
2022/04/26 09:00:11;;;;;;;8.20;7.40;;;;;;;19.10;45.18;92597.75;5089162;28;20473;-80
2022/04/26 09:02:37;;;;;;;8.13;7.33;;;;;;;19.01;45.38;92598.97;5088921;28;20206;-80
2022/04/26 09:05:10;;;;;;;7.87;7.20;;;;;;;18.66;46.90;92581.97;5088653;28;20210;-80
2022/04/26 09:07:39;;;;;;;9.13;8.37;;;;;;;18.60;47.64;92588.56;5088175;28;20222;-80
2022/04/26 09:10:12;;;;;;;8.20;7.50;;;;;;;19.22;45.33;92589.06;5089353;28;20189;-81
2022/04/26 09:13:09;;;;;;;8.03;7.20;;;;;;;19.40;44.29;92590.41;5088273;28;20217;-80
2022/04/26 09:15:41;;;;;;;8.17;7.67;;;;;;;19.43;44.52;92589.72;5088924;28;20267;-80
2022/04/26 09:18:15;;;;;;;8.03;7.43;;;;;;;19.49;45.26;92577.81;5087397;28;20220;-80
2022/04/26 09:20:42;;;;;;;7.30;6.90;;;;;;;19.68;43.14;92591.25;5088681;28;20395;-81
2022/04/26 09:23:20;;;;;;;8.00;7.43;;;;;;;19.65;43.73;92586.63;5088559;28;20238;-80
2022/04/26 09:25:46;;;;;;;8.63;8.13;;;;;;;19.59;44.25;92555.38;5088154;28;20333;-80
2022/04/26 09:28:23;;;;;;;8.80;8.00;;;;;;;19.78;44.18;92556.31;5089335;28;20250;-80
2022/04/26 09:30:49;;;;;;;8.30;7.83;;;;;;;19.93;43.81;92570.75;5091321;28;20222;-81
2022/04/26 09:33:38;;;;;;;8.20;7.60;;;;;;;19.96;44.00;92581.47;5092700;28;20200;-80
2022/04/26 09:36:06;;;;;;;8.57;7.83;;;;;;;20.10;43.35;92587.16;5092800;28;20222;-81
2022/04/26 09:38:33;;;;;;;8.00;7.50;;;;;;;19.81;43.60;92558.31;5093284;28;20249;-80
2022/04/26 09:41:04;;;;;;;8.43;7.60;;;;;;;19.62;44.28;92563.44;5090579;28;20232;-80
2022/04/26 09:43:30;;;;;;;8.63;7.93;;;;;;;19.85;46.41;92576.94;5074409;28;20222;-80
2022/04/26 09:45:57;;;;;;;8.30;7.83;;;;;;;20.30;44.03;92567.66;5092480;28;20227;-82
2022/04/26 09:48:32;;;;;;;8.90;8.03;;;;;;;20.25;42.33;92567.88;5093412;28;20184;-80
2022/04/26 09:50:58;;;;;;;7.13;6.60;;;;;;;20.14;43.82;92572.13;5092642;28;20228;-80
2022/04/26 09:53:25;;;;;;;10.50;8.33;;;;;;;19.98;43.86;92563.34;5091533;28;20250;-80
2022/04/26 09:55:55;;;;;;;8.03;7.47;;;;;;;20.57;42.62;92566.09;5092360;28;20243;-79
2022/04/26 09:58:22;;;;;;;7.67;7.07;;;;;;;20.25;42.88;92551.97;5091347;28;21217;-80
2022/04/26 10:00:49;;;;;;;7.43;6.90;;;;;;;20.67;41.10;92557.59;5090937;28;20238;-80
2022/04/26 10:03:39;;;;;;;8.30;7.90;;;;;;;20.30;41.94;92557.03;5093272;28;20646;-80
2022/04/26 10:06:07;;;;;;;8.67;7.80;;;;;;;20.33;43.50;92564.31;5091914;28;20242;-79
2022/04/26 10:08:35;;;;;;;8.87;8.03;;;;;;;20.46;43.39;92546.47;5090852;28;20199;-79
2022/04/26 10:11:02;;;;;;;8.30;7.68;;;;;;;20.80;42.50;92555.66;5091713;28;20234;-80
2022/04/26 10:13:32;;;;;;;7.40;7.00;;;;;;;20.62;41.68;92555.97;5092755;28;20626;-79
2022/04/26 10:16:05;;;;;;;8.23;7.73;;;;;;;20.51;41.52;92554.94;5091397;28;20258;-80
2022/04/26 10:18:38;;;;;;;7.77;7.33;;;;;;;20.56;41.58;92552.03;5075123;28;20239;-80
2022/04/26 10:21:05;;;;;;;7.80;7.35;;;;;;;20.73;40.17;92561.56;5091595;28;20232;-80
2022/04/26 10:24:01;;;;;;;8.80;8.17;;;;;;;20.62;40.33;92557.88;5083162;28;20191;-79
2022/04/26 10:26:27;;;;;;;7.97;7.43;;;;;;;20.04;40.50;92548.75;5090821;28;20232;-80
2022/04/26 10:28:54;;;;;;;8.90;8.20;;;;;;;19.94;41.40;92545.78;5092101;28;20199;-80
2022/04/26 10:31:35;;;;;;;8.17;7.53;;;;;;;20.39;43.30;92543.63;5091646;28;20243;-80
2022/04/26 10:34:17;;;;;;;6.95;6.55;;;;;;;20.75;39.91;92542.66;5091229;28;20267;-79
2022/04/26 10:36:47;;;;;;;7.93;7.33;;;;;;;20.89;39.82;92543.00;5090049;28;20318;-80
2022/04/26 10:39:12;;;;;;;7.43;7.13;;;;;;;20.59;39.27;92535.44;5092230;28;20182;-81
2022/04/26 10:41:45;;;;;;;7.50;7.00;;;;;;;20.82;38.21;92540.16;5090845;28;21248;-80
2022/04/26 10:44:14;;;;;;;7.07;6.70;;;;;;;20.51;38.95;92544.31;5091795;28;20214;-80
2022/04/26 10:46:45;;;;;;;8.00;7.32;;;;;;;20.47;38.39;92538.16;5091247;28;20306;-80
2022/04/26 10:49:22;;;;;;;6.63;6.27;;;;;;;20.57;40.07;92537.69;5081376;28;20195;-80
2022/04/26 10:51:48;;;;;;;7.30;6.77;;;;;;;21.01;38.94;92540.28;5091676;28;21254;-80
2022/04/26 10:54:13;;;;;;;7.75;7.25;;;;;;;21.66;37.59;92534.16;5091452;28;20224;-80
2022/04/26 10:56:39;;;;;;;8.07;7.47;;;;;;;21.12;37.56;92536.00;5091783;28;20235;-80
2022/04/26 10:59:14;;;;;;;7.33;6.60;;;;;;;21.45;37.67;92533.69;5090848;28;20191;-80
2022/04/26 11:01:41;;;;;;;7.70;7.05;;;;;;;20.76;38.49;92534.34;5089509;28;20217;-80
2022/04/26 11:04:07;;;;;;;8.15;7.35;;;;;;;21.08;38.39;92527.16;5092566;28;20213;-81
2022/04/26 11:06:37;;;;;;;7.82;7.07;;;;;;;20.94;38.17;92524.13;5073110;28;20238;-80
2022/04/26 11:09:07;;;;;;;6.97;6.57;;;;;;;20.81;38.21;92520.06;5090239;28;20202;-80
2022/04/26 11:12:03;;;;;;;7.47;7.13;;;;;;;21.47;37.75;92524.25;5091240;28;20239;-80
2022/04/26 11:14:29;;;;;;;7.65;7.15;;;;;;;21.77;37.66;92524.53;5090874;28;20195;-81
2022/04/26 11:16:58;;;;;;;8.40;7.35;;;;;;;21.12;39.13;92510.19;5087800;28;20216;-79
2022/04/26 11:19:31;;;;;;;8.35;6.63;;;;;;;21.60;41.13;92519.59;5091719;28;20192;-81
2022/04/26 11:22:04;;;;;;;7.60;6.90;;;;;;;22.02;39.60;92515.94;5090654;28;20291;-80
2022/04/26 11:29:57;;;;;;;7.47;6.95;;;;;;;21.70;38.62;92521.69;5089916;28;20208;-80
2022/04/26 11:32:47;;;;;;;9.35;8.38;;;;;;;21.67;38.22;92511.75;5071009;28;20719;-80
2022/04/26 11:35:19;;;;;;;7.55;7.07;;;;;;;21.82;37.23;92492.38;5090043;28;20197;-80
2022/04/26 11:37:53;;;;;;;8.15;7.55;;;;;;;22.07;37.27;92498.94;5089544;28;20228;-80
2022/04/26 11:40:28;;;;;;;8.07;7.20;;;;;;;22.34;37.94;92513.09;5071941;28;20201;-80
2022/04/26 11:42:58;;;;;;;8.43;7.82;;;;;;;22.51;38.35;92494.81;5090481;28;20245;-83
2022/04/26 11:45:30;;;;;;;8.07;7.50;;;;;;;22.60;38.07;92495.34;5089717;28;20216;-81
2022/04/26 11:47:57;;;;;;;7.53;7.00;;;;;;;22.88;37.41;92500.41;5091309;28;20639;-81
2022/04/26 11:50:28;;;;;;;8.35;7.72;;;;;;;22.89;37.13;92501.91;5069942;28;20210;-82
2022/04/26 11:53:01;;;;;;;7.95;7.25;;;;;;;22.71;35.37;92501.63;5088181;28;20201;-82
2022/04/26 11:55:30;;;;;;;7.78;7.28;;;;;;;22.46;33.01;92499.66;5070643;28;20195;-82
2022/04/26 11:58:06;;;;;;;6.93;6.55;;;;;;;22.44;32.70;92494.69;5089426;28;20205;-81
2022/04/26 12:00:33;;;;;;;7.28;6.93;;;;;;;22.76;33.49;92498.69;5088385;28;20255;-82
2022/04/26 12:02:59;;;;;;;7.57;7.03;;;;;;;22.86;33.61;92474.13;5088990;28;20190;-81
2022/04/26 12:05:25;;;;;;;7.65;7.25;;;;;;;22.73;33.07;92486.06;5090747;28;20217;-82
2022/04/26 12:07:51;;;;;;;7.55;7.15;;;;;;;22.58;34.58;92488.84;5088874;28;20192;-80
2022/04/26 12:10:26;;;;;;;7.57;7.20;;;;;;;22.34;34.91;92484.63;5088788;28;20200;-81
2022/04/26 12:12:56;;;;;;;7.90;7.38;;;;;;;22.30;34.75;92483.78;5066243;28;21569;-80
2022/04/26 12:15:30;;;;;;;7.78;7.18;;;;;;;21.94;34.50;92465.66;5088863;28;20250;-81
2022/04/26 12:18:14;;;;;;;8.27;6.88;;;;;;;21.62;35.02;92445.63;5089809;28;20216;-81
2022/04/26 12:21:00;;;;;;;7.45;7.05;;;;;;;22.22;35.45;92476.81;5089797;28;20255;-81
2022/04/26 12:23:28;;;;;;;7.45;7.05;;;;;;;22.12;36.12;92482.69;5088356;28;20197;-82
2022/04/26 12:25:55;;;;;;;6.60;6.30;;;;;;;22.61;33.57;92472.19;5088716;28;20290;-81
2022/04/26 12:28:20;;;;;;;7.72;7.05;;;;;;;23.02;32.87;92480.06;5087422;28;20187;-82
2022/04/26 12:30:46;;;;;;;6.80;6.50;;;;;;;23.15;31.94;92470.75;5089365;28;20233;-82
2022/04/26 12:33:23;;;;;;;6.75;6.45;;;;;;;23.12;31.92;92466.16;5071627;28;20247;-82
2022/04/26 12:36:03;;;;;;;8.23;7.40;;;;;;;22.89;31.72;92468.09;5085271;28;20236;-81
2022/04/26 12:38:29;;;;;;;7.75;7.28;;;;;;;22.65;32.88;92476.44;5086341;28;20234;-80
2022/04/26 12:41:05;;;;;;;7.82;7.43;;;;;;;22.25;33.22;92470.78;5089087;28;20249;-80
2022/04/26 12:43:32;;;;;;;7.55;7.15;;;;;;;22.48;32.66;92474.22;5089687;28;20197;-80
2022/04/26 12:46:03;;;;;;;7.63;6.95;;;;;;;22.48;33.58;92476.88;5089108;28;20256;-81
2022/04/26 12:51:25;;;;;;;7.25;6.72;;;;;;;22.72;33.52;92465.91;5087943;28;20240;-80
2022/04/26 12:54:06;;;;;;;7.13;6.63;;;;;;;22.52;32.11;92463.66;5071448;28;20221;-83
2022/04/26 12:56:31;;;;;;;10.10;7.60;;;;;;;22.32;36.65;92454.19;5089242;28;20232;-81
2022/04/26 12:58:57;;;;;;;7.53;6.85;;;;;;;22.63;37.65;92483.25;5089183;28;20209;-81
2022/04/26 13:01:22;;;;;;;7.70;7.10;;;;;;;22.23;38.09;92462.38;5089028;28;20221;-81
2022/04/26 13:03:48;;;;;;;7.70;7.20;;;;;;;22.17;37.88;92463.78;5089548;28;20310;-82
2022/04/26 13:06:17;;;;;;;7.30;6.63;;;;;;;21.75;41.00;92477.06;5088879;28;20235;-81
2022/04/26 13:08:45;;;;;;;8.20;7.38;;;;;;;21.87;39.09;92476.13;5089608;28;20190;-80
2022/04/26 13:11:12;;;;;;;7.80;7.20;;;;;;;21.93;39.41;92485.38;5089050;28;20280;-82
2022/04/26 13:13:41;;;;;;;7.30;6.85;;;;;;;22.05;38.21;92471.94;5089018;28;20181;-81
2022/04/26 13:16:07;;;;;;;8.23;7.57;;;;;;;21.81;39.19;92477.53;5087683;28;20247;-81
2022/04/26 13:18:34;;;;;;;7.72;7.10;;;;;;;21.28;39.05;92449.84;5063281;28;20287;-81
2022/04/26 13:21:01;;;;;;;7.65;7.15;;;;;;;20.95;38.92;92473.38;5071352;28;21002;-80
2022/04/26 13:23:29;;;;;;;7.18;6.85;;;;;;;20.87;39.30;92476.22;5088813;28;20195;-81
2022/04/26 13:26:41;;;;;;;7.83;7.47;;;;;;;20.60;39.16;92489.25;5087672;28;20247;-81
2022/04/26 13:29:06;;;;;;;7.13;6.63;;;;;;;19.84;41.22;92475.50;5071253;28;20223;-81
2022/04/26 13:31:32;;;;;;;8.48;7.68;;;;;;;19.28;43.26;92449.31;5088832;28;20238;-79
2022/04/26 13:33:57;;;;;;;8.13;7.57;;;;;;;19.11;43.81;92468.88;5088756;28;21083;-83
2022/04/26 13:36:26;;;;;;;8.07;7.57;;;;;;;18.87;45.39;92485.53;5088919;28;20227;-81
2022/04/26 13:38:51;;;;;;;7.77;7.30;;;;;;;18.84;45.73;92493.34;5089403;28;20230;-79
2022/04/26 13:41:17;;;;;;;7.27;6.90;;;;;;;18.88;46.26;92488.94;5088944;28;20320;-81
2022/04/26 13:43:42;;;;;;;8.77;7.40;;;;;;;19.04;46.56;92495.09;5088769;28;20214;-81
2022/04/26 13:46:10;;;;;;;7.17;6.77;;;;;;;19.02;47.16;92484.06;5088622;28;20292;-81
2022/04/26 13:48:35;;;;;;;7.17;6.87;;;;;;;18.94;48.03;92498.97;5087863;28;20194;-82
2022/04/26 13:51:01;;;;;;;7.43;7.07;;;;;;;19.02;49.01;92489.34;5088178;28;20227;-82
2022/04/26 13:53:29;;;;;;;8.13;7.57;;;;;;;18.67;49.60;92477.72;5088934;28;20194;-82
2022/04/26 13:55:55;;;;;;;6.73;6.43;;;;;;;18.52;49.53;92488.94;5088307;28;20225;-83
2022/04/26 13:58:20;;;;;;;8.27;7.53;;;;;;;18.69;49.42;92480.81;5088594;28;20228;-82
2022/04/26 14:00:46;;;;;;;8.23;7.83;;;;;;;18.71;49.13;92452.91;5088431;28;20239;-80
2022/04/26 14:03:13;;;;;;;7.93;7.27;;;;;;;18.93;48.88;92456.97;5089112;28;20235;-84
2022/04/26 14:05:38;;;;;;;7.20;6.90;;;;;;;18.95;48.39;92438.88;5070321;28;20935;-81
2022/04/26 14:08:04;;;;;;;9.10;8.33;;;;;;;19.40;47.88;92484.47;5061658;28;20252;-82
2022/04/26 14:10:30;;;;;;;7.83;7.43;;;;;;;19.43;47.67;92473.22;5068755;28;20213;-82
2022/04/26 14:12:57;;;;;;;7.37;6.57;;;;;;;19.93;46.74;92476.13;5088067;28;20233;-86
2022/04/26 14:23:35;;;;;;;9.20;7.80;;;;;;;20.41;45.95;92520.97;5092223;28;20285;-81
2022/04/26 14:26:03;;;;;;;6.90;6.50;;;;;;;20.63;45.26;92531.00;5091508;28;20223;-82
2022/04/26 14:28:28;;;;;;;7.50;6.90;;;;;;;19.78;47.33;92527.16;5091308;28;20207;-82
2022/04/26 14:30:54;;;;;;;7.27;6.73;;;;;;;19.19;48.88;92495.19;5091980;28;20218;-82
2022/04/26 14:33:19;;;;;;;7.50;7.10;;;;;;;19.26;49.54;92544.94;5091922;28;20249;-82
2022/04/26 14:35:45;;;;;;;7.53;7.00;;;;;;;18.89;51.06;92544.19;5092237;28;20231;-82
2022/04/26 14:38:10;;;;;;;6.67;6.43;;;;;;;18.11;51.97;92518.91;5089824;28;20234;-81
2022/04/26 14:40:37;;;;;;;7.90;7.20;;;;;;;18.08;53.03;92571.63;5091376;28;20195;-82
2022/04/26 14:43:04;;;;;;;7.00;6.77;;;;;;;18.09;52.39;92567.88;5090549;28;20193;-83
2022/04/26 14:45:32;;;;;;;7.93;7.53;;;;;;;18.11;52.65;92590.25;5090415;28;20189;-84
2022/04/26 14:48:00;;;;;;;7.67;7.37;;;;;;;17.93;52.16;92590.72;5092447;28;20186;-82
2022/04/26 14:50:26;;;;;;;7.83;7.47;;;;;;;17.88;52.16;92588.25;5073389;28;20224;-82
2022/04/26 14:52:53;;;;;;;7.57;6.93;;;;;;;17.59;52.55;92581.16;5091590;28;20191;-83
2022/04/26 14:55:18;;;;;;;7.27;6.77;;;;;;;17.63;52.06;92570.75;5092628;28;20206;-82
2022/04/26 14:57:44;;;;;;;8.73;6.27;;;;;;;17.91;52.26;92583.13;5091664;28;20229;-82
2022/04/26 15:00:10;;;;;;;6.87;6.37;;;;;;;17.72;51.38;92616.34;5074710;28;20257;-82
2022/04/26 15:02:39;;;;;;;6.47;6.27;;;;;;;17.36;51.40;92624.78;5091931;28;20220;-81
2022/04/26 15:05:08;;;;;;;6.90;6.67;;;;;;;17.29;51.95;92620.00;5085826;28;20203;-82
2022/04/26 15:10:19;;;;;;;6.87;6.63;;;;;;;17.22;50.29;92625.00;5090853;28;20187;-80
2022/04/26 15:18:13;;;;;;;7.07;6.70;;;;;;;17.34;49.47;92608.47;5090911;28;20292;-80
2022/04/26 15:20:41;;;;;;;7.27;6.97;;;;;;;17.05;49.95;92627.72;5091923;28;20190;-81
2022/04/26 15:23:06;;;;;;;6.87;6.47;;;;;;;16.70;50.76;92623.66;5091389;28;20207;-82
2022/04/26 15:25:32;;;;;;;6.83;6.63;;;;;;;16.89;50.98;92641.72;5091220;28;20192;-79
2022/04/26 15:27:57;;;;;;;14.03;7.83;;;;;;;16.77;50.88;92642.41;5088454;28;20276;-83
2022/04/26 15:30:23;;;;;;;8.57;8.10;;;;;;;17.18;50.10;92650.47;5090685;28;20185;-87
2022/04/26 15:32:48;;;;;;;7.43;7.13;;;;;;;17.23;50.20;92641.63;5090829;28;21811;-88
2022/04/26 15:35:14;;;;;;;7.27;6.97;;;;;;;16.86;50.46;92627.31;5091103;28;20195;-80
2022/04/26 15:37:39;;;;;;;8.10;7.80;;;;;;;16.54;52.24;92643.72;5088759;28;20252;-80
2022/04/26 15:40:05;;;;;;;7.20;6.90;;;;;;;16.48;52.59;92594.13;5090710;28;20185;-81
2022/04/26 15:42:31;;;;;;;7.37;7.07;;;;;;;16.47;52.06;92626.84;5089388;28;20288;-81
2022/04/26 15:44:57;;;;;;;7.83;7.53;;;;;;;16.77;51.50;92594.94;5072368;28;20200;-83
2022/04/26 15:47:22;;;;;;;7.73;7.43;;;;;;;16.44;52.40;92624.78;5071065;28;20216;-83
2022/04/26 15:49:48;;;;;;;7.43;7.13;;;;;;;16.92;51.23;92597.03;5090113;28;20178;-83
2022/04/26 15:52:13;;;;;;;7.20;7.00;;;;;;;17.18;52.55;92618.03;5072785;28;20224;-87
2022/04/26 15:54:41;;;;;;;8.23;7.73;;;;;;;16.97;51.44;92610.06;5089153;28;20259;-86